Time;durP1;ratioP1;P1;durP2;ratioP2;P2;SDS_P1;SDS_P2;PMS_P1;PMS_P2;Temp;Humidity;BMP_temperature;BMP_pressure;BME280_temperature;BME280_humidity;BME280_pressure;Samples;Min_cycle;Max_cycle;Signal;HPM_P1;HPM_P2
2022/11/17 00:00:40;;;;;;;30.65;14.35;;;8.60;99.90;;;;;;4776369;30;20429;-79
2022/11/17 00:03:12;;;;;;;31.05;15.15;;;8.60;99.90;;;;;;4780198;30;20078;-79
2022/11/17 00:05:40;;;;;;;29.83;15.45;;;8.60;99.90;;;;;;4772972;30;20383;-79
2022/11/17 00:08:07;;;;;;;32.40;15.30;;;8.60;99.90;;;;;;4772476;30;20665;-79
2022/11/17 00:10:34;;;;;;;31.52;14.93;;;8.60;99.90;;;;;;4775464;30;20056;-78
2022/11/17 00:15:58;;;;;;;33.67;14.65;;;8.60;99.90;;;;;;4755793;30;20425;-79
2022/11/17 00:21:17;;;;;;;45.42;17.60;;;8.60;99.90;;;;;;4786135;30;20527;-79
2022/11/17 00:23:48;;;;;;;40.80;17.95;;;8.60;99.90;;;;;;4757360;30;20059;-79
2022/11/17 00:26:18;;;;;;;44.70;18.60;;;8.50;99.90;;;;;;4765348;30;20097;-79
2022/11/17 00:28:45;;;;;;;41.13;16.70;;;8.50;99.90;;;;;;4768867;30;20134;-79
2022/11/17 00:34:05;;;;;;;44.90;17.35;;;8.50;99.90;;;;;;4771390;30;20063;-79
2022/11/17 00:36:44;;;;;;;44.75;19.42;;;8.50;99.90;;;;;;4759073;30;20054;-79
2022/11/17 00:39:13;;;;;;;47.20;17.85;;;8.50;99.90;;;;;;4769294;30;20053;-79
2022/11/17 00:41:40;;;;;;;46.63;18.73;;;8.50;99.90;;;;;;4769363;30;20207;-79
2022/11/17 00:44:09;;;;;;;48.22;17.38;;;8.50;99.90;;;;;;4770254;30;20048;-78
2022/11/17 00:46:37;;;;;;;44.47;17.52;;;8.50;99.90;;;;;;4767848;30;20036;-78
2022/11/17 00:49:05;;;;;;;46.45;18.67;;;8.50;99.90;;;;;;4768455;30;20196;-79
2022/11/17 00:51:34;;;;;;;49.70;17.70;;;8.50;99.90;;;;;;4763122;30;20044;-78
2022/11/17 00:54:02;;;;;;;48.97;18.40;;;8.50;99.90;;;;;;4771520;30;20058;-78
2022/11/17 00:56:29;;;;;;;48.03;18.00;;;8.50;99.90;;;;;;4753440;30;20044;-79
2022/11/17 00:58:57;;;;;;;51.88;18.90;;;8.50;99.90;;;;;;4764099;30;20333;-79
2022/11/17 01:01:24;;;;;;;45.40;18.63;;;8.50;99.90;;;;;;4766708;30;20060;-79
2022/11/17 01:04:01;;;;;;;51.83;20.73;;;8.40;99.90;;;;;;4768769;30;20059;-79
2022/11/17 01:06:37;;;;;;;53.65;18.95;;;8.40;99.90;;;;;;4767322;30;20754;-79
2022/11/17 01:09:12;;;;;;;49.38;18.38;;;8.40;99.90;;;;;;4764598;30;20135;-79
2022/11/17 01:11:40;;;;;;;47.53;17.27;;;8.40;99.90;;;;;;4765052;30;20044;-79
2022/11/17 01:14:09;;;;;;;50.08;17.98;;;8.40;99.90;;;;;;4752948;30;20445;-79
2022/11/17 01:16:36;;;;;;;54.92;19.58;;;8.50;99.90;;;;;;4748891;30;20059;-78
2022/11/17 01:19:03;;;;;;;52.67;17.95;;;8.50;99.90;;;;;;4779530;29;20476;-78
2022/11/17 01:21:31;;;;;;;50.97;18.08;;;8.50;99.90;;;;;;4752890;30;20086;-78
2022/11/17 01:24:00;;;;;;;50.30;19.25;;;8.50;99.90;;;;;;4764939;30;20113;-78
2022/11/17 01:26:30;;;;;;;49.33;18.88;;;8.50;99.90;;;;;;4748511;30;20059;-78
2022/11/17 01:28:58;;;;;;;52.30;18.85;;;8.50;99.90;;;;;;4765150;30;20404;-78
2022/11/17 01:31:28;;;;;;;53.22;19.23;;;8.40;99.90;;;;;;4762050;30;20063;-79
2022/11/17 01:33:56;;;;;;;51.95;18.67;;;8.40;99.90;;;;;;4763996;30;20183;-78
2022/11/17 01:36:26;;;;;;;75.70;21.75;;;8.40;99.90;;;;;;4758022;30;20066;-78
2022/11/17 01:38:54;;;;;;;47.65;18.17;;;8.40;99.90;;;;;;4751521;30;20715;-78
2022/11/17 01:41:23;;;;;;;51.20;19.08;;;8.40;99.90;;;;;;4762613;30;20118;-78
2022/11/17 01:44:17;;;;;;;55.58;20.70;;;8.40;99.90;;;;;;4764322;30;20052;-78
2022/11/17 01:46:44;;;;;;;43.92;16.73;;;8.40;99.90;;;;;;4780709;29;20056;-78
2022/11/17 01:49:18;;;;;;;51.35;19.40;;;8.40;99.90;;;;;;4765596;30;20067;-78
2022/11/17 01:51:50;;;;;;;48.95;18.00;;;8.40;99.90;;;;;;4770408;30;20044;-78
2022/11/17 01:54:21;;;;;;;51.17;18.80;;;8.40;99.90;;;;;;4762466;30;20067;-78
2022/11/17 01:56:51;;;;;;;58.78;20.10;;;8.40;99.90;;;;;;4764463;30;20409;-78
2022/11/17 01:59:25;;;;;;;57.03;20.00;;;8.40;99.90;;;;;;4759049;30;20055;-78
2022/11/17 02:01:56;;;;;;;50.03;18.92;;;8.40;99.90;;;;;;4761986;30;20385;-78
2022/11/17 02:04:30;;;;;;;53.42;19.67;;;8.40;99.90;;;;;;4753237;30;20051;-78
2022/11/17 02:07:09;;;;;;;51.28;19.88;;;8.40;99.90;;;;;;4770544;30;20051;-78
2022/11/17 02:09:39;;;;;;;54.42;18.70;;;8.30;99.90;;;;;;4766679;30;20043;-78
2022/11/17 02:12:10;;;;;;;50.75;19.70;;;8.30;99.90;;;;;;4764723;30;20044;-78
2022/11/17 02:14:38;;;;;;;47.03;17.80;;;8.30;99.90;;;;;;4762272;30;20052;-78
2022/11/17 02:17:09;;;;;;;54.45;20.98;;;8.30;99.90;;;;;;4767911;30;20100;-78
2022/11/17 02:19:42;;;;;;;53.95;19.27;;;8.40;99.90;;;;;;4763997;30;20569;-78
2022/11/17 02:22:54;;;;;;;52.95;20.50;;;8.30;99.90;;;;;;4749888;30;20051;-78
2022/11/17 02:25:43;;;;;;;53.95;21.20;;;8.30;99.90;;;;;;4762202;30;20124;-78
2022/11/17 02:28:14;;;;;;;52.75;21.02;;;8.40;99.90;;;;;;4761088;30;20055;-78
2022/11/17 02:31:23;;;;;;;51.47;18.98;;;8.40;99.90;;;;;;4765066;30;20079;-78
2022/11/17 02:34:10;;;;;;;55.33;18.63;;;8.30;99.90;;;;;;4767780;30;20094;-78
2022/11/17 02:36:49;;;;;;;57.45;21.25;;;8.40;99.90;;;;;;4750503;30;20055;-78
2022/11/17 02:39:37;;;;;;;56.58;19.27;;;8.40;99.90;;;;;;4745205;30;23974;-78
2022/11/17 02:42:08;;;;;;;50.05;18.85;;;8.40;99.90;;;;;;4777314;29;20052;-78
2022/11/17 02:44:46;;;;;;;56.70;20.35;;;8.40;99.90;;;;;;4750387;30;20440;-78
2022/11/17 02:47:31;;;;;;;52.47;19.73;;;8.30;99.90;;;;;;4749682;30;20148;-78
2022/11/17 02:50:04;;;;;;;46.50;16.70;;;8.30;99.90;;;;;;4763792;30;20044;-78
2022/11/17 02:52:31;;;;;;;;;;;8.30;99.90;;;;;;4762614;30;20048;-78
2022/11/17 02:55:03;;;;;;;48.63;18.83;;;8.30;99.90;;;;;;4761768;30;19930;-78
2022/11/17 02:57:33;;;;;;;45.78;17.40;;;8.30;99.90;;;;;;4752992;30;20055;-78
2022/11/17 03:00:11;;;;;;;46.30;17.15;;;8.30;99.90;;;;;;4769764;30;20055;-78
2022/11/17 03:02:57;;;;;;;54.60;18.83;;;8.30;99.90;;;;;;4761102;30;20464;-78
2022/11/17 03:05:53;;;;;;;46.97;18.77;;;8.30;99.90;;;;;;4767018;30;20055;-78
2022/11/17 03:08:40;;;;;;;49.60;17.27;;;8.30;99.90;;;;;;4757339;30;20923;-78
2022/11/17 03:11:08;;;;;;;47.35;17.25;;;8.30;99.90;;;;;;4751252;30;20512;-78
2022/11/17 03:13:59;;;;;;;42.50;17.40;;;8.30;99.90;;;;;;4764398;30;20069;-78
2022/11/17 03:16:36;;;;;;;52.25;17.67;;;8.30;99.90;;;;;;4766877;30;20416;-78
2022/11/17 03:19:26;;;;;;;43.72;17.58;;;8.20;99.90;;;;;;4761775;30;20532;-78
2022/11/17 03:22:10;;;;;;;45.67;17.92;;;8.20;99.90;;;;;;4760416;30;20072;-78
2022/11/17 03:24:49;;;;;;;44.50;17.42;;;8.20;99.90;;;;;;4767523;30;20051;-78
2022/11/17 03:27:27;;;;;;;52.30;18.35;;;8.20;99.90;;;;;;4751317;30;20046;-78
2022/11/17 03:30:00;;;;;;;48.97;18.00;;;8.10;99.90;;;;;;4764464;30;20047;-78
2022/11/17 03:32:31;;;;;;;52.92;18.73;;;8.10;99.90;;;;;;4762107;30;20404;-78
2022/11/17 03:35:04;;;;;;;55.08;18.23;;;8.10;99.90;;;;;;4750563;30;20052;-78
2022/11/17 03:37:33;;;;;;;;;;;8.10;99.90;;;;;;4760977;30;20060;-78
2022/11/17 03:40:09;;;;;;;51.13;16.60;;;8.10;99.90;;;;;;4765690;30;19987;-78
2022/11/17 03:42:40;;;;;;;53.17;18.25;;;8.10;99.90;;;;;;4759472;30;20462;-78
2022/11/17 03:45:22;;;;;;;51.75;18.08;;;8.10;99.90;;;;;;4751618;30;20056;-78
2022/11/17 03:47:54;;;;;;;58.55;21.65;;;8.00;99.90;;;;;;4763029;30;20056;-78
2022/11/17 03:50:34;;;;;;;51.75;18.17;;;7.90;99.90;;;;;;4755369;30;20052;-78
2022/11/17 03:53:03;;;;;;;55.78;20.23;;;7.90;99.90;;;;;;4752746;30;20059;-78
2022/11/17 03:55:44;;;;;;;62.00;19.33;;;7.90;99.90;;;;;;4766903;30;20540;-78
2022/11/17 03:58:16;;;;;;;60.70;19.73;;;7.80;99.90;;;;;;4762895;30;20047;-78
2022/11/17 04:00:45;;;;;;;62.08;19.50;;;7.80;99.90;;;;;;4748280;30;20058;-78
2022/11/17 04:03:13;;;;;;;68.47;21.73;;;7.80;99.90;;;;;;4746875;30;20064;-78
2022/11/17 04:05:40;;;;;;;63.05;20.27;;;7.80;99.90;;;;;;4763423;30;20094;-78
2022/11/17 04:08:07;;;;;;;60.35;21.23;;;7.80;99.90;;;;;;4767277;30;20043;-78
2022/11/17 04:15:55;;;;;;;64.65;21.45;;;7.80;99.90;;;;;;4763798;30;20078;-78
2022/11/17 04:16:07;;;;;;;94.80;34.03;;;7.80;99.90;;;;;;4768199;30;20062;-78
2022/11/17 04:18:34;;;;;;;83.10;32.22;;;7.80;99.90;;;;;;4767091;30;20101;-78
2022/11/17 04:21:01;;;;;;;70.93;25.90;;;7.80;99.90;;;;;;4764614;30;20056;-79
2022/11/17 04:23:28;;;;;;;66.47;24.80;;;7.70;99.90;;;;;;4760577;30;20089;-79
2022/11/17 04:28:48;;;;;;;55.53;19.85;;;7.70;99.90;;;;;;4767366;30;20055;-78
2022/11/17 04:31:16;;;;;;;62.30;21.05;;;7.70;99.90;;;;;;4754296;30;20047;-78
2022/11/17 04:33:45;;;;;;;63.47;21.50;;;7.60;99.90;;;;;;4767490;30;20105;-78
2022/11/17 04:36:16;;;;;;;61.47;21.23;;;7.60;99.90;;;;;;4763122;30;20742;-78
2022/11/17 04:38:45;;;;;;;66.22;21.40;;;7.60;99.90;;;;;;4771242;30;20055;-78
2022/11/17 04:44:01;;;;;;;70.80;20.58;;;7.50;99.90;;;;;;4764724;30;20383;-78
2022/11/17 04:46:30;;;;;;;64.60;20.20;;;7.50;99.90;;;;;;4745124;30;20052;-78
2022/11/17 04:48:58;;;;;;;65.10;20.90;;;7.40;99.90;;;;;;4739047;30;20055;-78
2022/11/17 04:51:26;;;;;;;70.05;22.75;;;7.40;99.90;;;;;;4766230;30;20062;-78
2022/11/17 04:53:54;;;;;;;69.70;21.05;;;7.40;99.90;;;;;;4746296;30;20056;-78
2022/11/17 04:56:22;;;;;;;63.95;19.25;;;7.40;99.90;;;;;;4773373;29;20048;-78
2022/11/17 04:58:49;;;;;;;73.72;21.20;;;7.40;99.90;;;;;;4765735;30;20120;-78
2022/11/17 05:01:17;;;;;;;71.65;22.00;;;7.40;99.90;;;;;;4777673;29;20480;-78
2022/11/17 05:03:52;;;;;;;75.47;21.25;;;7.30;99.90;;;;;;4751798;30;20047;-78
2022/11/17 05:06:20;;;;;;;68.32;21.17;;;7.30;99.90;;;;;;4747258;30;20739;-78
2022/11/17 05:08:48;;;;;;;72.28;21.95;;;7.30;99.90;;;;;;4761815;30;20129;-78
2022/11/17 05:14:02;;;;;;;78.18;22.63;;;7.30;99.90;;;;;;4766241;30;20054;-78
2022/11/17 05:19:18;;;;;;;67.70;20.70;;;7.30;99.90;;;;;;4765395;30;20055;-78
2022/11/17 05:21:45;;;;;;;69.65;21.33;;;7.30;99.90;;;;;;4767858;29;20058;-78
2022/11/17 05:24:14;;;;;;;67.10;20.52;;;7.30;99.90;;;;;;4763205;30;20051;-78
2022/11/17 05:26:42;;;;;;;72.00;19.80;;;7.30;99.90;;;;;;4763546;30;20076;-78
2022/11/17 05:29:12;;;;;;;71.60;22.33;;;7.30;99.90;;;;;;4765149;30;20059;-78
2022/11/17 05:31:39;;;;;;;72.20;20.95;;;7.40;99.90;;;;;;4770987;29;20058;-78
2022/11/17 05:34:08;;;;;;;65.25;20.17;;;7.40;99.90;;;;;;4747192;30;20063;-78
2022/11/17 05:36:36;;;;;;;67.93;20.88;;;7.40;99.90;;;;;;4764620;30;20039;-78
2022/11/17 05:39:04;;;;;;;67.00;19.20;;;7.40;99.90;;;;;;4745987;30;20073;-78
2022/11/17 05:41:31;;;;;;;60.38;21.58;;;7.40;99.90;;;;;;4765362;30;20512;-78
2022/11/17 05:43:58;;;;;;;68.28;18.65;;;7.40;99.90;;;;;;4760838;30;20047;-78
2022/11/17 05:46:26;;;;;;;57.03;19.55;;;7.40;99.90;;;;;;4769029;30;20050;-78
2022/11/17 05:48:53;;;;;;;63.88;19.13;;;7.40;99.90;;;;;;4763048;30;20089;-78
2022/11/17 05:51:22;;;;;;;66.18;19.45;;;7.40;99.90;;;;;;4761369;30;20534;-78
2022/11/17 05:53:49;;;;;;;57.80;19.33;;;7.40;99.90;;;;;;4775682;29;20056;-78
2022/11/17 05:56:28;;;;;;;69.30;21.08;;;7.40;99.90;;;;;;4765909;30;20063;-78
2022/11/17 05:59:01;;;;;;;63.50;19.33;;;7.40;99.90;;;;;;4756170;30;20063;-78
2022/11/17 06:01:31;;;;;;;67.40;24.48;;;7.40;99.90;;;;;;4764977;30;20071;-78
2022/11/17 06:04:02;;;;;;;71.10;24.02;;;7.40;99.90;;;;;;4764270;30;20051;-78
2022/11/17 06:06:30;;;;;;;71.47;25.17;;;7.30;99.90;;;;;;4773284;30;20041;-78
2022/11/17 06:08:57;;;;;;;84.43;27.13;;;7.30;99.90;;;;;;4763724;30;20428;-78
2022/11/17 06:11:24;;;;;;;70.47;23.10;;;7.30;99.90;;;;;;4764954;30;20052;-78
2022/11/17 06:13:51;;;;;;;83.70;27.50;;;7.30;99.90;;;;;;4763575;30;20444;-78
2022/11/17 06:16:21;;;;;;;93.95;28.50;;;7.30;99.90;;;;;;4764627;30;20566;-78
2022/11/17 06:19:10;;;;;;;84.78;25.40;;;7.20;99.90;;;;;;4764778;30;20066;-78
2022/11/17 06:21:37;;;;;;;91.03;23.65;;;7.20;99.90;;;;;;4760008;29;20404;-78
2022/11/17 06:24:24;;;;;;;86.05;23.42;;;7.30;99.90;;;;;;4750485;30;20146;-78
2022/11/17 06:26:51;;;;;;;78.88;21.73;;;7.30;99.90;;;;;;4760513;30;20048;-78
2022/11/17 06:29:18;;;;;;;72.00;20.40;;;7.30;99.90;;;;;;4764817;30;20101;-78
2022/11/17 06:31:46;;;;;;;69.65;20.02;;;7.30;99.90;;;;;;4760283;30;20051;-78
2022/11/17 06:34:13;;;;;;;76.60;21.30;;;7.30;99.90;;;;;;4760874;30;20120;-78
2022/11/17 06:36:40;;;;;;;82.25;22.63;;;7.30;99.90;;;;;;4762317;30;20070;-78
2022/11/17 06:39:07;;;;;;;74.65;19.05;;;7.30;99.90;;;;;;4760161;30;20186;-78
2022/11/17 06:41:35;;;;;;;68.68;18.50;;;7.30;99.90;;;;;;4766397;30;20052;-78
2022/11/17 06:44:02;;;;;;;68.63;19.30;;;7.40;99.90;;;;;;4764295;30;20056;-78
2022/11/17 06:46:36;;;;;;;70.18;19.77;;;7.40;99.90;;;;;;4766014;30;20699;-78
2022/11/17 06:49:05;;;;;;;70.25;19.85;;;7.40;99.90;;;;;;4763702;30;20052;-78
2022/11/17 06:51:35;;;;;;;66.70;21.17;;;7.50;99.90;;;;;;4764854;30;20043;-78
2022/11/17 06:54:11;;;;;;;71.88;19.98;;;7.50;99.90;;;;;;4763580;30;20074;-78
2022/11/17 06:56:38;;;;;;;77.68;20.90;;;7.50;99.90;;;;;;4756519;30;20051;-78
2022/11/17 06:59:05;;;;;;;78.20;21.15;;;7.50;99.90;;;;;;4762095;30;20126;-78
2022/11/17 07:01:36;;;;;;;81.97;21.20;;;7.60;99.90;;;;;;4781632;29;20035;-78
2022/11/17 07:04:03;;;;;;;71.65;19.65;;;7.60;99.90;;;;;;5424674;24;20111;-78
2022/11/17 07:06:38;;;;;;;71.70;20.45;;;7.70;99.90;;;;;;4999027;24;20074;-78
2022/11/17 07:09:05;;;;;;;78.75;22.50;;;7.70;99.90;;;;;;4792713;29;20079;-78
2022/11/17 07:11:35;;;;;;;75.05;21.20;;;7.80;99.90;;;;;;4796680;29;23922;-78
2022/11/17 07:14:04;;;;;;;79.35;22.38;;;7.90;99.90;;;;;;4783204;29;20067;-78
2022/11/17 07:16:31;;;;;;;78.88;22.55;;;7.90;99.90;;;;;;4762342;30;20062;-78
2022/11/17 07:19:02;;;;;;;80.97;21.33;;;8.10;99.90;;;;;;4774663;30;20060;-78
2022/11/17 07:21:29;;;;;;;75.63;20.58;;;8.10;99.90;;;;;;4766562;30;20055;-78
2022/11/17 07:23:56;;;;;;;66.70;22.52;;;8.20;99.90;;;;;;4762955;30;20098;-78
2022/11/17 07:26:23;;;;;;;76.30;23.65;;;8.20;99.90;;;;;;4751452;30;20051;-78
2022/11/17 07:28:51;;;;;;;62.50;19.20;;;8.20;99.90;;;;;;5033151;24;20058;-78
2022/11/17 07:31:18;;;;;;;55.40;18.38;;;8.30;99.90;;;;;;4813492;29;20054;-78
2022/11/17 07:33:45;;;;;;;58.28;18.83;;;8.40;99.90;;;;;;4783979;29;20058;-78
2022/11/17 07:36:15;;;;;;;57.60;19.40;;;8.50;99.90;;;;;;4803487;29;20151;-78
2022/11/17 07:38:42;;;;;;;60.80;18.75;;;8.50;99.90;;;;;;4788448;29;20063;-78
2022/11/17 07:47:23;;;;;;;56.00;18.08;;;8.70;99.90;;;;;;4971364;24;20059;-79
2022/11/17 07:58:46;;;;;;;44.15;18.58;;;8.50;99.90;;;;;;4854106;24;20058;-78
2022/11/17 08:04:45;;;;;;;40.25;15.98;;;8.40;99.90;;;;;;5206916;24;20289;-78
2022/11/17 08:21:14;;;;;;;41.35;15.60;;;8.50;99.90;;;;;;4864630;24;20054;-78
2022/11/17 08:40:06;;;;;;;31.92;12.07;;;8.40;99.90;;;;;;5699698;24;19928;-79
2022/11/17 08:49:49;;;;;;;33.03;12.55;;;8.50;99.90;;;;;;5802930;24;20030;-78
2022/11/17 08:52:18;;;;;;;29.75;11.35;;;8.60;99.90;;;;;;5299469;24;20037;-78
2022/11/17 08:54:51;;;;;;;31.20;12.25;;;8.50;99.90;;;;;;5415260;24;20026;-78
2022/11/17 08:57:32;;;;;;;34.35;12.68;;;8.60;99.90;;;;;;5670999;24;20034;-80
2022/11/17 09:00:07;;;;;;;31.85;12.95;;;8.60;99.90;;;;;;2298415;24;21540;-78
2022/11/17 09:02:37;;;;;;;31.48;12.57;;;8.70;99.90;;;;;;4976341;24;1439769;-78
2022/11/17 09:05:05;;;;;;;30.85;11.77;;;8.70;99.90;;;;;;4800834;29;20057;-79
2022/11/17 09:07:36;;;;;;;29.95;11.50;;;8.80;99.90;;;;;;4793991;29;20053;-77
2022/11/17 09:10:04;;;;;;;27.27;12.23;;;8.90;99.90;;;;;;5313427;24;20030;-80
2022/11/17 09:44:48;;;;;;;24.00;10.35;;;9.50;99.90;;;;;;4838048;24;20144;-79
2022/11/17 10:00:32;;;;;;;19.25;8.00;;;9.50;99.90;;;;;;4897253;24;20048;31
2022/11/17 10:03:00;;;;;;;18.85;8.52;;;9.80;99.90;;;;;;4901108;24;20074;-79
2022/11/17 10:05:45;;;;;;;15.38;6.80;;;10.00;99.90;;;;;;5432595;24;20030;-79
2022/11/17 10:08:17;;;;;;;17.73;7.63;;;10.20;99.90;;;;;;4998509;24;20043;-79
2022/11/17 10:14:22;;;;;;;15.85;6.88;;;10.00;99.90;;;;;;5088837;24;20059;31
2022/11/17 10:27:21;;;;;;;19.08;8.48;;;10.20;99.90;;;;;;4973787;24;19933;-78
2022/11/17 10:30:18;;;;;;;16.90;7.30;;;10.30;99.90;;;;;;4769040;29;20062;-78
2022/11/17 10:32:51;;;;;;;15.20;7.00;;;10.40;99.90;;;;;;4780827;29;20063;-78
2022/11/17 10:35:34;;;;;;;16.17;7.00;;;10.50;99.90;;;;;;4975086;24;20063;-78
2022/11/17 10:41:04;;;;;;;16.95;7.63;;;10.50;99.90;;;;;;4935760;24;20265;-78
2022/11/17 10:43:35;;;;;;;14.88;7.22;;;10.50;99.90;;;;;;4789513;24;20063;-78
2022/11/17 10:46:12;;;;;;;15.88;8.05;;;10.50;99.90;;;;;;4785631;29;20055;-78
2022/11/17 10:52:09;;;;;;;13.30;6.38;;;10.20;99.90;;;;;;5228609;24;20047;-78
2022/11/17 10:54:40;;;;;;;14.75;7.10;;;10.20;99.90;;;;;;4748725;30;20096;-78
2022/11/17 11:00:27;;;;;;;13.38;6.78;;;10.40;99.90;;;;;;4758469;30;20033;-78
2022/11/17 11:03:19;;;;;;;14.18;7.75;;;10.60;99.90;;;;;;4971314;24;20043;-78
2022/11/17 11:09:26;;;;;;;11.95;5.75;;;10.70;99.90;;;;;;5388907;24;20049;-79
2022/11/17 11:12:14;;;;;;;13.50;6.32;;;10.50;99.90;;;;;;5100110;24;20069;-79
2022/11/17 11:24:38;;;;;;;12.35;6.57;;;10.70;99.90;;;;;;5249379;24;20432;-78
2022/11/17 11:27:57;;;;;;;13.40;6.47;;;10.70;99.90;;;;;;4901923;24;20051;-80
2022/11/17 11:30:26;;;;;;;14.10;6.55;;;10.60;99.90;;;;;;4758569;30;20176;-78
2022/11/17 11:32:53;;;;;;;10.38;4.82;;;10.60;99.90;;;;;;4758009;30;20059;-78
2022/11/17 11:35:39;;;;;;;11.25;4.90;;;10.60;99.90;;;;;;4763432;30;20056;-78
2022/11/17 11:38:40;;;;;;;14.07;6.32;;;10.50;99.90;;;;;;4892994;24;20059;-78
2022/11/17 11:41:35;;;;;;;12.93;6.07;;;10.70;99.90;;;;;;4770380;30;20397;-78
2022/11/17 11:44:20;;;;;;;11.75;6.18;;;10.40;99.90;;;;;;4786784;29;20078;-78
2022/11/17 11:47:31;;;;;;;11.57;6.22;;;10.40;99.90;;;;;;4765768;29;20641;-78
2022/11/17 11:50:25;;;;;;;12.65;6.40;;;10.40;99.90;;;;;;4723280;29;20146;-78
2022/11/17 11:53:11;;;;;;;12.48;6.32;;;10.40;99.90;;;;;;4766251;29;20058;-78
2022/11/17 11:55:41;;;;;;;11.60;6.07;;;10.40;99.90;;;;;;4771627;30;20146;-78
2022/11/17 11:58:23;;;;;;;11.40;5.40;;;10.40;99.90;;;;;;4764239;29;20051;-78
2022/11/17 12:01:04;;;;;;;12.55;6.70;;;10.40;99.90;;;;;;4775467;29;20086;-78
2022/11/17 12:04:06;;;;;;;12.52;5.85;;;10.40;99.90;;;;;;4781127;29;20055;-78
2022/11/17 12:06:52;;;;;;;33.05;15.65;;;10.30;99.90;;;;;;4760135;29;20067;-78
2022/11/17 12:09:38;;;;;;;19.13;9.68;;;10.40;99.90;;;;;;4761415;29;20437;-78
2022/11/17 12:12:33;;;;;;;13.50;7.05;;;10.40;99.90;;;;;;4756379;29;20344;-78
2022/11/17 12:15:18;;;;;;;15.18;7.68;;;10.40;99.90;;;;;;4745705;29;20951;-78
2022/11/17 12:17:51;;;;;;;12.70;5.63;;;10.50;99.90;;;;;;4759274;29;20058;-78
2022/11/17 12:20:50;;;;;;;21.73;10.07;;;10.50;99.90;;;;;;4753952;30;20480;-78
2022/11/17 12:23:38;;;;;;;29.88;15.48;;;10.60;99.90;;;;;;4684155;30;20063;-78
2022/11/17 12:26:06;;;;;;;32.90;16.15;;;10.60;99.90;;;;;;4753660;30;20116;-78
2022/11/17 12:28:36;;;;;;;16.20;8.25;;;10.60;99.90;;;;;;4754835;30;20582;-78
2022/11/17 12:31:31;;;;;;;15.88;6.68;;;10.60;99.90;;;;;;4762200;30;20126;-78
2022/11/17 12:33:58;;;;;;;14.90;6.22;;;10.50;99.90;;;;;;4749916;30;20052;-78
2022/11/17 12:36:28;;;;;;;27.95;15.32;;;10.50;99.90;;;;;;4737571;30;20052;-78
2022/11/17 12:38:59;;;;;;;35.03;21.25;;;10.50;99.90;;;;;;4740944;30;20128;-78
2022/11/17 12:41:48;;;;;;;16.80;9.77;;;10.50;99.90;;;;;;4739328;30;20412;-78
2022/11/17 12:44:37;;;;;;;13.57;6.93;;;10.40;99.90;;;;;;4757976;30;20085;-78
2022/11/17 12:47:16;;;;;;;14.63;7.18;;;10.50;99.90;;;;;;4761006;30;20055;-78
2022/11/17 12:49:47;;;;;;;14.35;7.43;;;10.50;99.90;;;;;;4753561;30;20056;-78
2022/11/17 12:52:32;;;;;;;13.05;7.38;;;10.50;99.90;;;;;;4758081;30;20052;-78
2022/11/17 12:55:26;;;;;;;13.95;7.72;;;10.50;99.90;;;;;;4754424;30;20721;-78
2022/11/17 12:58:09;;;;;;;10.73;6.03;;;10.70;99.90;;;;;;4701905;30;20048;-78
2022/11/17 13:01:00;;;;;;;11.65;6.03;;;10.60;99.90;;;;;;4752129;30;20052;-78
2022/11/17 13:03:56;;;;;;;11.13;5.50;;;10.50;99.90;;;;;;4741595;30;20048;-78
2022/11/17 13:06:23;;;;;;;13.05;5.90;;;10.50;99.90;;;;;;4742199;30;20047;-78
2022/11/17 13:09:11;;;;;;;12.07;6.53;;;10.50;99.90;;;;;;4742798;30;20047;-78
2022/11/17 13:11:38;;;;;;;13.03;6.20;;;10.50;99.90;;;;;;4736237;30;20425;-78
2022/11/17 13:14:09;;;;;;;14.70;7.35;;;10.50;99.90;;;;;;4752076;30;20296;-78
2022/11/17 13:16:50;;;;;;;12.32;7.13;;;10.50;99.90;;;;;;4737281;30;20078;-78
2022/11/17 13:19:34;;;;;;;14.00;6.32;;;10.50;99.90;;;;;;4754452;30;20140;-78
2022/11/17 13:22:16;;;;;;;13.30;6.25;;;10.60;99.90;;;;;;4740631;30;20066;-78
2022/11/17 13:24:46;;;;;;;13.10;6.60;;;10.60;99.90;;;;;;4752407;30;20066;-78
2022/11/17 13:27:30;;;;;;;11.27;6.13;;;10.60;99.90;;;;;;4755187;30;20083;-78
2022/11/17 13:30:26;;;;;;;12.02;5.78;;;10.60;99.90;;;;;;4742212;30;20062;-78
2022/11/17 13:32:55;;;;;;;12.00;6.18;;;10.60;99.90;;;;;;4759786;30;20043;-78
2022/11/17 13:35:32;;;;;;;12.57;6.15;;;10.60;99.90;;;;;;4755506;30;20105;-78
2022/11/17 13:38:10;;;;;;;12.82;6.43;;;10.50;99.90;;;;;;4737354;30;20930;-78
2022/11/17 13:40:39;;;;;;;10.45;5.80;;;10.50;99.90;;;;;;4754132;30;20519;-78
2022/11/17 13:43:11;;;;;;;12.20;6.10;;;10.40;99.90;;;;;;4747497;30;20080;-78
2022/11/17 13:45:39;;;;;;;10.88;6.03;;;10.40;99.90;;;;;;4742645;30;20105;-78
2022/11/17 13:48:26;;;;;;;11.70;5.63;;;10.40;99.90;;;;;;4753192;30;20048;-78
2022/11/17 13:50:53;;;;;;;13.10;6.72;;;10.40;99.90;;;;;;4742587;30;20529;-78
2022/11/17 13:53:25;;;;;;;12.00;5.57;;;10.40;99.90;;;;;;4747006;30;20071;-78
2022/11/17 13:55:52;;;;;;;14.70;7.45;;;10.30;99.90;;;;;;4762791;30;20048;-78
2022/11/17 13:58:21;;;;;;;13.60;7.43;;;10.30;99.90;;;;;;4749180;30;20496;-78
2022/11/17 14:00:56;;;;;;;11.95;6.20;;;10.30;99.90;;;;;;4757679;30;20072;-78
2022/11/17 14:03:34;;;;;;;14.63;7.32;;;10.30;99.90;;;;;;4746275;30;20051;-78
2022/11/17 14:06:07;;;;;;;14.13;7.57;;;10.20;99.90;;;;;;4747892;30;20295;-78
2022/11/17 14:08:36;;;;;;;16.95;8.20;;;10.20;99.90;;;;;;4749715;30;20551;-78
2022/11/17 14:11:09;;;;;;;15.85;8.18;;;10.20;99.90;;;;;;4744892;30;20143;-78
2022/11/17 14:13:45;;;;;;;17.52;8.02;;;10.20;99.90;;;;;;4744941;30;20059;-78
2022/11/17 14:16:23;;;;;;;17.95;8.32;;;10.20;99.90;;;;;;4747068;30;23058;-78
2022/11/17 14:19:03;;;;;;;19.58;8.77;;;10.20;99.90;;;;;;4762915;30;20900;-78
2022/11/17 14:21:31;;;;;;;15.35;7.85;;;10.20;99.90;;;;;;4743544;30;20060;-78
2022/11/17 14:24:05;;;;;;;18.08;7.82;;;10.20;99.90;;;;;;4738354;30;20112;-78
2022/11/17 14:26:32;;;;;;;15.98;7.45;;;10.20;99.90;;;;;;4754921;30;20044;-78
2022/11/17 14:29:01;;;;;;;19.20;9.52;;;10.20;99.90;;;;;;4763226;30;20758;-78
2022/11/17 14:31:29;;;;;;;26.65;12.90;;;10.20;99.90;;;;;;4772399;30;20109;-78
2022/11/17 14:33:56;;;;;;;47.88;22.45;;;10.10;99.90;;;;;;4756908;30;20078;-79
2022/11/17 14:36:24;;;;;;;39.47;18.50;;;10.10;99.90;;;;;;4758696;30;20097;-78
2022/11/17 14:38:51;;;;;;;36.08;17.55;;;10.10;99.90;;;;;;4768831;30;20055;-78
2022/11/17 14:41:19;;;;;;;39.33;18.25;;;10.00;99.90;;;;;;4761879;30;20048;-78
2022/11/17 14:43:46;;;;;;;45.97;21.08;;;10.00;99.90;;;;;;4764453;30;20496;-78
2022/11/17 14:46:23;;;;;;;42.08;19.10;;;10.00;99.90;;;;;;4764580;30;20052;-78
2022/11/17 14:48:51;;;;;;;32.28;15.98;;;10.00;99.90;;;;;;4773416;30;20043;-78
2022/11/17 14:51:19;;;;;;;20.85;10.55;;;10.00;99.90;;;;;;4774983;30;20489;-78
2022/11/17 14:53:46;;;;;;;17.38;9.35;;;10.00;99.90;;;;;;4775139;30;20048;-78
2022/11/17 14:56:16;;;;;;;15.95;7.32;;;10.00;99.90;;;;;;4732200;30;20059;-78
2022/11/17 14:58:45;;;;;;;13.95;7.85;;;9.90;99.90;;;;;;4759594;30;20052;-78
2022/11/17 15:01:27;;;;;;;13.55;7.38;;;9.90;99.90;;;;;;4759065;30;20055;-78
2022/11/17 15:03:59;;;;;;;20.90;9.50;;;9.90;99.90;;;;;;4770659;30;20051;-78
2022/11/17 15:06:46;;;;;;;41.33;17.88;;;9.90;99.90;;;;;;4767985;29;20851;-78
2022/11/17 15:09:16;;;;;;;118.50;43.53;;;9.90;99.90;;;;;;4767362;30;20121;-78
2022/11/17 15:11:43;;;;;;;85.85;34.53;;;9.90;99.90;;;;;;4755771;30;20143;-78
2022/11/17 15:14:10;;;;;;;57.00;22.73;;;9.80;99.90;;;;;;4775293;30;20074;-78
2022/11/17 15:16:38;;;;;;;46.58;18.30;;;9.80;99.90;;;;;;4760870;30;20085;-78
2022/11/17 15:19:05;;;;;;;39.25;17.58;;;9.80;99.90;;;;;;4771456;30;20078;-78
2022/11/17 15:21:32;;;;;;;35.08;16.45;;;9.80;99.90;;;;;;4751268;30;20501;-78
2022/11/17 15:24:01;;;;;;;37.95;17.67;;;9.80;99.90;;;;;;4737393;30;20063;-78
2022/11/17 15:26:28;;;;;;;46.28;20.63;;;9.80;99.90;;;;;;4752479;30;20060;-78
2022/11/17 15:28:59;;;;;;;46.70;20.02;;;9.80;99.90;;;;;;4740453;30;20087;-78
2022/11/17 15:31:27;;;;;;;41.20;19.08;;;9.70;99.90;;;;;;4736903;30;20051;-77
2022/11/17 15:33:54;;;;;;;49.20;22.38;;;9.60;99.90;;;;;;4746631;30;20122;-78
2022/11/17 15:36:21;;;;;;;64.97;26.55;;;9.60;99.90;;;;;;4738488;30;20411;-78
2022/11/17 15:38:49;;;;;;;68.30;28.52;;;9.60;99.90;;;;;;4762217;29;20142;-78
2022/11/17 15:41:16;;;;;;;56.42;24.13;;;9.60;99.90;;;;;;4752476;30;20055;-78
2022/11/17 15:43:44;;;;;;;35.85;18.20;;;9.60;99.90;;;;;;4752275;30;20142;-78
2022/11/17 15:46:16;;;;;;;30.83;15.07;;;9.60;99.90;;;;;;4767987;29;20902;-78
2022/11/17 15:48:46;;;;;;;28.58;13.73;;;9.50;99.90;;;;;;4755319;30;20504;-78
2022/11/17 15:51:16;;;;;;;34.70;16.70;;;9.60;99.90;;;;;;4750918;30;20481;-78